SWA1065 KLAS-KSNA
Flight info
| Callsign | SWA1065 |
|---|---|
| Flight time | 0h 42m |
| Altitude | 28000 |
| Route | RADYR2 SLVRR FEYLA DSNEE6 |
| Aircraft | B737/M-SADE2E3GIJ4RWZ/LB1D1 |
Departure
| Time | 2026-05-04 02:19 |
|---|---|
| Airport | Harry Reid International Airport (KLAS) |
Arrival
| Time | 2026-05-04 03:01 |
|---|---|
| Airport | John Wayne Orange County International Airport (KSNA) |
| Time | Latitude | Longitude | Altitude | Speed | Heading |
|---|---|---|---|---|---|
| 2026-05-04 01:41 | 36.07956 | -115.14671 | 2187 ft | 0 kts | 27° |
| 2026-05-04 02:08 | 36.07950 | -115.14675 | 2187 ft | 4 kts | 32° |
| 2026-05-04 02:08 | 36.07931 | -115.14697 | 2187 ft | 4 kts | 69° |
| 2026-05-04 02:08 | 36.07928 | -115.14729 | 2191 ft | 4 kts | 104° |
| 2026-05-04 02:09 | 36.07940 | -115.14756 | 2187 ft | 3 kts | 149° |
| 2026-05-04 02:09 | 36.07943 | -115.14758 | 2187 ft | 0 kts | 155° |
| 2026-05-04 02:12 | 36.07935 | -115.14753 | 2187 ft | 7 kts | 155° |
| 2026-05-04 02:12 | 36.07858 | -115.14727 | 2189 ft | 13 kts | 202° |
| 2026-05-04 02:13 | 36.07861 | -115.14843 | 2188 ft | 18 kts | 275° |
| 2026-05-04 02:13 | 36.07872 | -115.15010 | 2191 ft | 22 kts | 274° |
| 2026-05-04 02:13 | 36.07878 | -115.15209 | 2187 ft | 23 kts | 269° |
| 2026-05-04 02:13 | 36.07899 | -115.15347 | 2191 ft | 16 kts | 324° |
| 2026-05-04 02:14 | 36.07997 | -115.15403 | 2189 ft | 16 kts | 335° |
| 2026-05-04 02:14 | 36.08104 | -115.15465 | 2187 ft | 19 kts | 335° |
| 2026-05-04 02:14 | 36.08232 | -115.15539 | 2188 ft | 22 kts | 335° |
| 2026-05-04 02:14 | 36.08373 | -115.15620 | 2188 ft | 24 kts | 335° |
| 2026-05-04 02:15 | 36.08524 | -115.15708 | 2188 ft | 24 kts | 335° |
| 2026-05-04 02:15 | 36.08671 | -115.15783 | 2189 ft | 23 kts | 353° |
| 2026-05-04 02:15 | 36.08823 | -115.15726 | 2190 ft | 25 kts | 25° |
| 2026-05-04 02:15 | 36.08991 | -115.15630 | 2190 ft | 29 kts | 25° |
| 2026-05-04 02:16 | 36.09183 | -115.15520 | 2187 ft | 32 kts | 25° |
| 2026-05-04 02:16 | 36.09383 | -115.15404 | 2187 ft | 32 kts | 25° |
| 2026-05-04 02:16 | 36.09577 | -115.15293 | 2189 ft | 30 kts | 25° |
| 2026-05-04 02:16 | 36.09725 | -115.15208 | 2190 ft | 17 kts | 20° |
| 2026-05-04 02:17 | 36.09798 | -115.15250 | 2188 ft | 5 kts | 291° |
| 2026-05-04 02:17 | 36.09799 | -115.15252 | 2190 ft | 0 kts | 291° |
| 2026-05-04 02:18 | 36.09800 | -115.15256 | 2190 ft | 7 kts | 291° |
| 2026-05-04 02:18 | 36.09820 | -115.15316 | 2190 ft | 10 kts | 294° |
| 2026-05-04 02:19 | 36.09812 | -115.15386 | 2190 ft | 10 kts | 208° |
| 2026-05-04 02:19 | 36.09575 | -115.15519 | 2192 ft | 79 kts | 205° |
| 2026-05-04 02:19 | 36.08848 | -115.15939 | 2227 ft | 151 kts | 205° |
| 2026-05-04 02:19 | 36.07818 | -115.16532 | 2927 ft | 175 kts | 204° |
| 2026-05-04 02:20 | 36.06657 | -115.17172 | 3806 ft | 189 kts | 205° |
| 2026-05-04 02:20 | 36.05391 | -115.17902 | 4350 ft | 216 kts | 208° |
| 2026-05-04 02:20 | 36.03986 | -115.18761 | 5004 ft | 232 kts | 207° |
| 2026-05-04 02:20 | 36.02523 | -115.19643 | 5982 ft | 231 kts | 206° |
| 2026-05-04 02:21 | 36.01062 | -115.20514 | 6669 ft | 234 kts | 206° |
| 2026-05-04 02:21 | 35.99540 | -115.21353 | 6908 ft | 257 kts | 203° |
| 2026-05-04 02:21 | 35.97833 | -115.22143 | 7890 ft | 261 kts | 201° |
| 2026-05-04 02:21 | 35.96108 | -115.22912 | 8920 ft | 269 kts | 200° |
| 2026-05-04 02:22 | 35.94320 | -115.23708 | 9556 ft | 277 kts | 200° |
| 2026-05-04 02:22 | 35.92516 | -115.24514 | 10051 ft | 275 kts | 200° |
| 2026-05-04 02:22 | 35.90666 | -115.25344 | 10553 ft | 298 kts | 200° |
| 2026-05-04 02:22 | 35.88612 | -115.26270 | 10787 ft | 329 kts | 200° |
| 2026-05-04 02:23 | 35.86413 | -115.27262 | 11454 ft | 341 kts | 200° |
| 2026-05-04 02:23 | 35.84172 | -115.28275 | 12468 ft | 343 kts | 200° |
| 2026-05-04 02:23 | 35.81916 | -115.29296 | 13388 ft | 350 kts | 199° |
| 2026-05-04 02:23 | 35.79609 | -115.30340 | 14233 ft | 354 kts | 200° |
| 2026-05-04 02:24 | 35.77298 | -115.31385 | 15186 ft | 356 kts | 200° |
| 2026-05-04 02:24 | 35.75151 | -115.32356 | 15894 ft | 363 kts | 200° |
| 2026-05-04 02:24 | 35.72763 | -115.33435 | 16706 ft | 367 kts | 201° |
| 2026-05-04 02:24 | 35.70351 | -115.34525 | 17553 ft | 372 kts | 201° |
| 2026-05-04 02:25 | 35.67901 | -115.35631 | 18334 ft | 376 kts | 202° |
| 2026-05-04 02:25 | 35.65440 | -115.36741 | 19106 ft | 376 kts | 202° |
| 2026-05-04 02:25 | 35.62981 | -115.37850 | 19948 ft | 375 kts | 204° |
| 2026-05-04 02:25 | 35.60685 | -115.39313 | 20688 ft | 370 kts | 219° |
| 2026-05-04 02:26 | 35.58804 | -115.41430 | 21476 ft | 365 kts | 229° |
| 2026-05-04 02:26 | 35.57090 | -115.43731 | 22253 ft | 364 kts | 230° |
| 2026-05-04 02:26 | 35.55409 | -115.46054 | 22938 ft | 364 kts | 231° |
| 2026-05-04 02:26 | 35.53745 | -115.48356 | 23568 ft | 364 kts | 231° |
| 2026-05-04 02:27 | 35.52051 | -115.50681 | 23994 ft | 368 kts | 231° |
| 2026-05-04 02:27 | 35.50331 | -115.53024 | 24475 ft | 370 kts | 231° |
| 2026-05-04 02:27 | 35.48603 | -115.55363 | 25095 ft | 367 kts | 231° |
| 2026-05-04 02:27 | 35.46890 | -115.57670 | 25823 ft | 364 kts | 231° |
| 2026-05-04 02:28 | 35.45184 | -115.59965 | 26508 ft | 363 kts | 232° |
| 2026-05-04 02:28 | 35.43481 | -115.62253 | 27167 ft | 362 kts | 232° |
| 2026-05-04 02:28 | 35.41781 | -115.64535 | 27709 ft | 362 kts | 232° |
| 2026-05-04 02:28 | 35.40111 | -115.66777 | 27777 ft | 358 kts | 232° |
| 2026-05-04 02:29 | 35.38428 | -115.69035 | 27816 ft | 360 kts | 232° |
| 2026-05-04 02:29 | 35.36738 | -115.71301 | 27811 ft | 361 kts | 232° |
| 2026-05-04 02:29 | 35.35044 | -115.73569 | 27826 ft | 361 kts | 232° |
| 2026-05-04 02:29 | 35.33350 | -115.75838 | 27829 ft | 361 kts | 232° |
| 2026-05-04 02:30 | 35.31657 | -115.78107 | 27810 ft | 361 kts | 232° |
| 2026-05-04 02:30 | 35.29961 | -115.80381 | 27802 ft | 362 kts | 232° |
| 2026-05-04 02:30 | 35.28265 | -115.82652 | 27815 ft | 361 kts | 232° |
| 2026-05-04 02:30 | 35.26567 | -115.84926 | 27793 ft | 361 kts | 232° |
| 2026-05-04 02:31 | 35.24870 | -115.87196 | 27799 ft | 361 kts | 232° |
| 2026-05-04 02:31 | 35.23177 | -115.89460 | 27792 ft | 361 kts | 232° |
| 2026-05-04 02:31 | 35.21464 | -115.91707 | 27794 ft | 361 kts | 231° |
| 2026-05-04 02:31 | 35.19724 | -115.93916 | 27794 ft | 361 kts | 230° |
| 2026-05-04 02:32 | 35.17972 | -115.96113 | 27788 ft | 361 kts | 230° |
| 2026-05-04 02:32 | 35.16221 | -115.98306 | 27787 ft | 360 kts | 230° |
| 2026-05-04 02:32 | 35.14470 | -116.00501 | 27786 ft | 360 kts | 230° |
| 2026-05-04 02:32 | 35.12721 | -116.02698 | 27781 ft | 360 kts | 230° |
| 2026-05-04 02:33 | 35.10980 | -116.04886 | 27774 ft | 359 kts | 230° |
| 2026-05-04 02:33 | 35.09237 | -116.07078 | 27775 ft | 359 kts | 230° |
| 2026-05-04 02:33 | 35.07520 | -116.09239 | 27778 ft | 359 kts | 230° |
| 2026-05-04 02:33 | 35.05774 | -116.11434 | 27781 ft | 360 kts | 230° |
| 2026-05-04 02:34 | 35.04030 | -116.13625 | 27775 ft | 360 kts | 230° |
| 2026-05-04 02:34 | 35.02287 | -116.15815 | 27774 ft | 360 kts | 230° |
| 2026-05-04 02:34 | 35.01132 | -116.17264 | 27774 ft | 360 kts | 230° |
| 2026-05-04 02:34 | 34.98797 | -116.20193 | 27769 ft | 360 kts | 230° |
| 2026-05-04 02:35 | 34.97050 | -116.22383 | 27768 ft | 360 kts | 230° |
| 2026-05-04 02:35 | 34.95893 | -116.23833 | 27768 ft | 360 kts | 230° |
| 2026-05-04 02:35 | 34.94144 | -116.26023 | 27770 ft | 360 kts | 230° |
| 2026-05-04 02:35 | 34.92400 | -116.28206 | 27774 ft | 360 kts | 230° |
| 2026-05-04 02:36 | 34.90651 | -116.30394 | 27781 ft | 360 kts | 230° |
| 2026-05-04 02:36 | 34.88901 | -116.32580 | 27564 ft | 362 kts | 230° |
| 2026-05-04 02:36 | 34.87150 | -116.34779 | 27311 ft | 360 kts | 230° |
| 2026-05-04 02:36 | 34.85421 | -116.36981 | 27007 ft | 358 kts | 230° |
| 2026-05-04 02:37 | 34.83714 | -116.39160 | 26715 ft | 353 kts | 231° |
| 2026-05-04 02:37 | 34.82023 | -116.41320 | 26415 ft | 351 kts | 230° |
| 2026-05-04 02:37 | 34.80363 | -116.43438 | 26120 ft | 349 kts | 230° |
| 2026-05-04 02:37 | 34.78692 | -116.45568 | 25831 ft | 347 kts | 230° |
| 2026-05-04 02:38 | 34.77027 | -116.47688 | 25537 ft | 346 kts | 230° |
| 2026-05-04 02:38 | 34.75369 | -116.49797 | 25257 ft | 345 kts | 230° |
| 2026-05-04 02:38 | 34.73710 | -116.51907 | 24967 ft | 344 kts | 230° |
| 2026-05-04 02:38 | 34.72049 | -116.54016 | 24840 ft | 346 kts | 230° |
| 2026-05-04 02:39 | 34.70382 | -116.56131 | 24800 ft | 346 kts | 230° |
| 2026-05-04 02:39 | 34.68681 | -116.58191 | 24779 ft | 346 kts | 226° |
| 2026-05-04 02:39 | 34.66830 | -116.60086 | 24782 ft | 349 kts | 224° |
| 2026-05-04 02:39 | 34.64921 | -116.61918 | 24581 ft | 351 kts | 223° |
| 2026-05-04 02:40 | 34.63001 | -116.63741 | 24078 ft | 348 kts | 223° |
| 2026-05-04 02:40 | 34.61115 | -116.65544 | 23517 ft | 343 kts | 223° |
| 2026-05-04 02:40 | 34.59284 | -116.67311 | 22926 ft | 339 kts | 223° |
| 2026-05-04 02:40 | 34.57445 | -116.69100 | 22294 ft | 338 kts | 223° |
| 2026-05-04 02:41 | 34.55617 | -116.70885 | 21668 ft | 337 kts | 223° |
| 2026-05-04 02:41 | 34.53790 | -116.72669 | 21079 ft | 337 kts | 222° |
| 2026-05-04 02:41 | 34.51967 | -116.74449 | 20494 ft | 337 kts | 222° |
| 2026-05-04 02:41 | 34.50144 | -116.76240 | 19919 ft | 336 kts | 223° |
| 2026-05-04 02:42 | 34.48414 | -116.78142 | 19348 ft | 334 kts | 226° |
| 2026-05-04 02:42 | 34.46748 | -116.80101 | 18797 ft | 333 kts | 226° |
| 2026-05-04 02:42 | 34.45096 | -116.82067 | 18251 ft | 332 kts | 226° |
| 2026-05-04 02:42 | 34.43446 | -116.84019 | 17649 ft | 330 kts | 226° |
| 2026-05-04 02:43 | 34.41802 | -116.85947 | 17029 ft | 327 kts | 226° |
| 2026-05-04 02:43 | 34.40191 | -116.87826 | 16432 ft | 325 kts | 225° |
| 2026-05-04 02:43 | 34.38567 | -116.89713 | 15848 ft | 323 kts | 225° |
| 2026-05-04 02:43 | 34.36946 | -116.91593 | 15308 ft | 320 kts | 225° |
| 2026-05-04 02:44 | 34.35346 | -116.93445 | 14832 ft | 317 kts | 225° |
| 2026-05-04 02:44 | 34.33754 | -116.95286 | 14392 ft | 316 kts | 224° |
| 2026-05-04 02:44 | 34.32175 | -116.97107 | 14229 ft | 310 kts | 224° |
| 2026-05-04 02:44 | 34.30595 | -116.98925 | 14135 ft | 316 kts | 224° |
| 2026-05-04 02:45 | 34.28994 | -117.00766 | 14033 ft | 320 kts | 224° |
| 2026-05-04 02:45 | 34.27392 | -117.02605 | 13821 ft | 323 kts | 223° |
| 2026-05-04 02:45 | 34.25628 | -117.04278 | 13583 ft | 322 kts | 214° |
| 2026-05-04 02:45 | 34.23715 | -117.05645 | 13327 ft | 317 kts | 211° |
| 2026-05-04 02:46 | 34.21807 | -117.06947 | 13082 ft | 312 kts | 211° |
| 2026-05-04 02:46 | 34.19958 | -117.08239 | 12979 ft | 304 kts | 212° |
| 2026-05-04 02:46 | 34.18115 | -117.09554 | 12881 ft | 311 kts | 212° |
| 2026-05-04 02:46 | 34.16216 | -117.10826 | 12785 ft | 313 kts | 208° |
| 2026-05-04 02:47 | 34.14227 | -117.11919 | 12692 ft | 314 kts | 205° |
| 2026-05-04 02:47 | 34.12219 | -117.12958 | 12581 ft | 314 kts | 205° |
| 2026-05-04 02:47 | 34.10237 | -117.13984 | 12491 ft | 314 kts | 205° |
| 2026-05-04 02:47 | 34.08232 | -117.15034 | 12376 ft | 314 kts | 205° |
| 2026-05-04 02:48 | 34.06234 | -117.16095 | 12290 ft | 314 kts | 206° |
| 2026-05-04 02:48 | 34.04239 | -117.17160 | 12184 ft | 313 kts | 206° |
| 2026-05-04 02:48 | 34.02244 | -117.18227 | 12086 ft | 313 kts | 206° |
| 2026-05-04 02:48 | 34.00315 | -117.19387 | 11898 ft | 304 kts | 214° |
| 2026-05-04 02:49 | 33.98705 | -117.20918 | 11689 ft | 287 kts | 226° |
| 2026-05-04 02:49 | 33.97413 | -117.22674 | 11487 ft | 274 kts | 229° |
| 2026-05-04 02:49 | 33.96200 | -117.24403 | 11276 ft | 266 kts | 229° |
| 2026-05-04 02:49 | 33.95006 | -117.26092 | 11087 ft | 265 kts | 229° |
| 2026-05-04 02:50 | 33.93797 | -117.27791 | 10994 ft | 271 kts | 229° |
| 2026-05-04 02:50 | 33.92552 | -117.29545 | 10661 ft | 279 kts | 230° |
| 2026-05-04 02:50 | 33.91309 | -117.31306 | 10347 ft | 277 kts | 230° |
| 2026-05-04 02:50 | 33.90082 | -117.33045 | 10004 ft | 268 kts | 230° |
| 2026-05-04 02:51 | 33.88896 | -117.34725 | 9637 ft | 259 kts | 229° |
| 2026-05-04 02:51 | 33.87747 | -117.36352 | 9292 ft | 251 kts | 229° |
| 2026-05-04 02:51 | 33.86627 | -117.37935 | 8951 ft | 245 kts | 229° |
| 2026-05-04 02:51 | 33.85537 | -117.39476 | 8651 ft | 239 kts | 229° |
| 2026-05-04 02:52 | 33.84471 | -117.40979 | 8352 ft | 235 kts | 229° |
| 2026-05-04 02:52 | 33.83414 | -117.42471 | 8062 ft | 234 kts | 229° |
| 2026-05-04 02:52 | 33.82346 | -117.43976 | 8030 ft | 239 kts | 229° |
| 2026-05-04 02:52 | 33.81454 | -117.45648 | 7994 ft | 236 kts | 245° |
| 2026-05-04 02:53 | 33.80864 | -117.47471 | 7950 ft | 234 kts | 249° |
| 2026-05-04 02:53 | 33.80294 | -117.49346 | 7643 ft | 242 kts | 249° |
| 2026-05-04 02:53 | 33.79784 | -117.51248 | 7327 ft | 237 kts | 261° |
| 2026-05-04 02:53 | 33.79826 | -117.53204 | 7053 ft | 233 kts | 276° |
| 2026-05-04 02:54 | 33.80091 | -117.55110 | 6750 ft | 230 kts | 278° |
| 2026-05-04 02:54 | 33.80383 | -117.56997 | 6444 ft | 230 kts | 278° |
| 2026-05-04 02:54 | 33.80674 | -117.58891 | 6071 ft | 230 kts | 278° |
| 2026-05-04 02:54 | 33.80960 | -117.60779 | 5746 ft | 230 kts | 278° |
| 2026-05-04 02:55 | 33.81520 | -117.64558 | 5071 ft | 228 kts | 278° |
| 2026-05-04 02:55 | 33.81788 | -117.66402 | 4747 ft | 226 kts | 278° |
| 2026-05-04 02:55 | 33.82054 | -117.68224 | 4493 ft | 217 kts | 278° |
| 2026-05-04 02:56 | 33.82307 | -117.69980 | 4198 ft | 209 kts | 277° |
| 2026-05-04 02:56 | 33.82548 | -117.71660 | 3937 ft | 199 kts | 278° |
| 2026-05-04 02:56 | 33.82780 | -117.73278 | 3710 ft | 189 kts | 278° |
| 2026-05-04 02:56 | 33.83000 | -117.74804 | 3492 ft | 181 kts | 277° |
| 2026-05-04 02:57 | 33.83006 | -117.76232 | 3284 ft | 169 kts | 249° |
| 2026-05-04 02:57 | 33.82366 | -117.77390 | 3032 ft | 168 kts | 218° |
| 2026-05-04 02:57 | 33.81395 | -117.78119 | 2821 ft | 165 kts | 210° |
| 2026-05-04 02:57 | 33.80378 | -117.78764 | 2662 ft | 164 kts | 210° |
| 2026-05-04 02:58 | 33.79379 | -117.79402 | 2489 ft | 162 kts | 210° |
| 2026-05-04 02:58 | 33.78392 | -117.80028 | 2281 ft | 159 kts | 209° |
| 2026-05-04 02:58 | 33.77422 | -117.80647 | 2095 ft | 158 kts | 210° |
| 2026-05-04 02:58 | 33.76451 | -117.81264 | 1899 ft | 157 kts | 210° |
| 2026-05-04 02:59 | 33.75492 | -117.81886 | 1688 ft | 154 kts | 211° |
| 2026-05-04 02:59 | 33.74569 | -117.82468 | 1453 ft | 147 kts | 212° |
| 2026-05-04 02:59 | 33.73680 | -117.83031 | 1251 ft | 141 kts | 210° |
| 2026-05-04 02:59 | 33.72861 | -117.83559 | 1117 ft | 126 kts | 209° |
| 2026-05-04 03:00 | 33.72079 | -117.84053 | 968 ft | 128 kts | 208° |
| 2026-05-04 03:00 | 33.71286 | -117.84551 | 777 ft | 127 kts | 209° |
| 2026-05-04 03:00 | 33.70509 | -117.85039 | 614 ft | 127 kts | 207° |
| 2026-05-04 03:00 | 33.69725 | -117.85531 | 432 ft | 126 kts | 208° |
| 2026-05-04 03:01 | 33.68960 | -117.86010 | 259 ft | 124 kts | 208° |
| 2026-05-04 03:01 | 33.68196 | -117.86490 | 101 ft | 121 kts | 209° |
| 2026-05-04 03:01 | 33.67528 | -117.86913 | 55 ft | 83 kts | 208° |
| 2026-05-04 03:01 | 33.67199 | -117.87119 | 56 ft | 33 kts | 206° |
| 2026-05-04 03:02 | 33.67023 | -117.87222 | 58 ft | 19 kts | 187° |
| 2026-05-04 03:02 | 33.66918 | -117.87165 | 58 ft | 16 kts | 126° |
| 2026-05-04 03:02 | 33.66939 | -117.87069 | 54 ft | 13 kts | 41° |
| 2026-05-04 03:02 | 33.67007 | -117.86998 | 51 ft | 13 kts | 41° |
| 2026-05-04 03:03 | 33.67074 | -117.86929 | 55 ft | 13 kts | 40° |
| 2026-05-04 03:03 | 33.67141 | -117.86863 | 54 ft | 13 kts | 35° |
| 2026-05-04 03:03 | 33.67227 | -117.86805 | 54 ft | 16 kts | 28° |
| 2026-05-04 03:03 | 33.67317 | -117.86720 | 54 ft | 17 kts | 49° |
| 2026-05-04 03:04 | 33.67415 | -117.86646 | 52 ft | 17 kts | 27° |
| 2026-05-04 03:04 | 33.67515 | -117.86583 | 48 ft | 16 kts | 28° |
| 2026-05-04 03:04 | 33.67611 | -117.86523 | 54 ft | 15 kts | 28° |
| 2026-05-04 03:04 | 33.67664 | -117.86488 | 50 ft | 6 kts | 29° |
| 2026-05-04 03:05 | 33.67661 | -117.86448 | 54 ft | 4 kts | 121° |
| 2026-05-04 03:05 | 33.67651 | -117.86426 | 49 ft | 1 kts | 118° |
| 2026-05-04 03:05 | 33.67649 | -117.86420 | 51 ft | 1 kts | 118° |
| 2026-05-04 03:05 | 33.67648 | -117.86419 | 51 ft | 0 kts | 118° |